Hovedside
METAR-TAF:

METAR-TAF

Lufthavner :

Berlevåg lufthavn

Berlevåg, Norge

breddegrad: 70-52N, lengdegrad: 029-02E, høyde over havet: 1 m

Gjeldene værobservasjon

Denne rapporten ble laget for 36 minutter siden, klokken 09:50 UTC
Vind 17 kt fra Øst
Temperatur 9°C
Luftfuktighet 93%
Trykk 1002 hPa
Sikt 10 km eller mer
byger på avstand,

METAR: ENBV 190950Z 10017KT 9999 VCSH NSC 09/08 Q1002

Tid: 12:26 (10:26 UTC)

Varsel

Denne rapporten ble laget for 2 timer og 26 minutter siden, klokken 08:00 UTC
Varsel gyldig fra 19. klokken 09 UTC til 19. klokken 18 UTC
Vind 18 kt fra Øst
Sikt 10 km eller mer
Få skyer i en høyde av 500 ft
Brutte skyer i en høyde av 6000 ft
lett regn
Sannsynlighet 40% :
Midlertidig
fra 19. klokken 15 UTC til 19. klokken 18 UTC
Vind 28 kt fra Øst
Brutte skyer i en høyde av 800 ft
regn,

TAF: ENBV 190800Z 1909/1918 10018KT 9999 -RA FEW005 BKN060 PROB40 TEMPO 1915/1918 10028KT RA BKN008

Værobservasjoner og værvarsel for over 4000 flyplasser (METAR- og TAF-rapporter).

Tilgjengelige stasjoner er representert av de røde og gule prikkene på kartet.

Hold musepekeren over prikken for å se navnet på stasjonen.

Klikk så for å se værobservasjoner og -varsler.

For å forandre kartet kan du klikke på den grønne knappen med svart kryss for å zoome inn, på den grønne knappen med strek for å zoome ut, eller på de grønne pilene for å se tilstøtende kart.


METAR-TAF: